sensor_id;sensor_type;location;lat;lon;timestamp;P1;durP1;ratioP1;P2;durP2;ratioP2
63312;SDS011;49442;45.640;13.812;2023-10-09T00:01:00;14.32;;;6.60;;
63312;SDS011;49442;45.640;13.812;2023-10-09T00:03:38;13.55;;;5.40;;
63312;SDS011;49442;45.640;13.812;2023-10-09T00:06:09;17.23;;;5.40;;
63312;SDS011;49442;45.640;13.812;2023-10-09T00:08:39;16.60;;;5.68;;
63312;SDS011;49442;45.640;13.812;2023-10-09T00:11:09;12.18;;;5.88;;
63312;SDS011;49442;45.640;13.812;2023-10-09T00:13:40;18.05;;;5.35;;
63312;SDS011;49442;45.640;13.812;2023-10-09T00:16:17;13.88;;;5.10;;
63312;SDS011;49442;45.640;13.812;2023-10-09T00:19:12;15.63;;;5.90;;
63312;SDS011;49442;45.640;13.812;2023-10-09T00:21:55;9.43;;;5.10;;
63312;SDS011;49442;45.640;13.812;2023-10-09T00:24:31;13.18;;;5.38;;
63312;SDS011;49442;45.640;13.812;2023-10-09T00:26:57;19.98;;;4.88;;
63312;SDS011;49442;45.640;13.812;2023-10-09T00:29:46;25.00;;;5.40;;
63312;SDS011;49442;45.640;13.812;2023-10-09T00:32:12;15.05;;;4.50;;
63312;SDS011;49442;45.640;13.812;2023-10-09T00:34:47;12.07;;;4.57;;
63312;SDS011;49442;45.640;13.812;2023-10-09T00:37:15;16.63;;;4.90;;
63312;SDS011;49442;45.640;13.812;2023-10-09T00:39:42;17.02;;;4.68;;
63312;SDS011;49442;45.640;13.812;2023-10-09T00:42:09;14.68;;;4.60;;
63312;SDS011;49442;45.640;13.812;2023-10-09T00:44:40;16.75;;;4.90;;
63312;SDS011;49442;45.640;13.812;2023-10-09T00:47:13;13.55;;;4.38;;
63312;SDS011;49442;45.640;13.812;2023-10-09T00:50:00;17.23;;;3.88;;
63312;SDS011;49442;45.640;13.812;2023-10-09T00:52:50;11.02;;;4.05;;
63312;SDS011;49442;45.640;13.812;2023-10-09T00:55:26;10.95;;;3.80;;
63312;SDS011;49442;45.640;13.812;2023-10-09T00:57:53;12.73;;;3.60;;
63312;SDS011;49442;45.640;13.812;2023-10-09T01:00:25;17.17;;;4.30;;
63312;SDS011;49442;45.640;13.812;2023-10-09T01:03:01;20.60;;;3.90;;
63312;SDS011;49442;45.640;13.812;2023-10-09T01:05:51;18.02;;;3.90;;
63312;SDS011;49442;45.640;13.812;2023-10-09T01:08:24;17.40;;;3.55;;
63312;SDS011;49442;45.640;13.812;2023-10-09T01:11:06;12.45;;;3.92;;
63312;SDS011;49442;45.640;13.812;2023-10-09T01:13:39;15.55;;;3.88;;
63312;SDS011;49442;45.640;13.812;2023-10-09T01:16:24;17.33;;;4.70;;
63312;SDS011;49442;45.640;13.812;2023-10-09T01:18:50;12.57;;;4.07;;
63312;SDS011;49442;45.640;13.812;2023-10-09T01:21:23;12.93;;;3.53;;
63312;SDS011;49442;45.640;13.812;2023-10-09T01:23:50;8.25;;;3.13;;
63312;SDS011;49442;45.640;13.812;2023-10-09T01:26:37;12.05;;;3.47;;
63312;SDS011;49442;45.640;13.812;2023-10-09T01:29:10;14.77;;;3.88;;
63312;SDS011;49442;45.640;13.812;2023-10-09T01:31:49;14.77;;;3.65;;
63312;SDS011;49442;45.640;13.812;2023-10-09T01:34:18;13.27;;;3.42;;
63312;SDS011;49442;45.640;13.812;2023-10-09T01:36:49;14.75;;;3.45;;
63312;SDS011;49442;45.640;13.812;2023-10-09T01:39:20;11.82;;;3.10;;
63312;SDS011;49442;45.640;13.812;2023-10-09T01:41:51;10.45;;;3.30;;
63312;SDS011;49442;45.640;13.812;2023-10-09T01:44:23;8.82;;;3.72;;
63312;SDS011;49442;45.640;13.812;2023-10-09T01:47:00;16.52;;;4.20;;
63312;SDS011;49442;45.640;13.812;2023-10-09T01:49:35;12.65;;;2.97;;
63312;SDS011;49442;45.640;13.812;2023-10-09T01:52:06;9.25;;;2.88;;
63312;SDS011;49442;45.640;13.812;2023-10-09T01:54:45;15.93;;;3.55;;
63312;SDS011;49442;45.640;13.812;2023-10-09T01:57:14;7.32;;;2.75;;
63312;SDS011;49442;45.640;13.812;2023-10-09T01:59:41;7.80;;;2.70;;
63312;SDS011;49442;45.640;13.812;2023-10-09T02:02:14;12.75;;;3.45;;
63312;SDS011;49442;45.640;13.812;2023-10-09T02:04:52;10.38;;;2.92;;
63312;SDS011;49442;45.640;13.812;2023-10-09T02:07:19;22.50;;;3.70;;
63312;SDS011;49442;45.640;13.812;2023-10-09T02:09:54;12.73;;;3.90;;
63312;SDS011;49442;45.640;13.812;2023-10-09T02:12:21;15.70;;;3.72;;
63312;SDS011;49442;45.640;13.812;2023-10-09T02:14:49;11.60;;;3.50;;
63312;SDS011;49442;45.640;13.812;2023-10-09T02:17:18;11.98;;;4.45;;
63312;SDS011;49442;45.640;13.812;2023-10-09T02:19:45;16.25;;;3.88;;
63312;SDS011;49442;45.640;13.812;2023-10-09T02:22:15;10.23;;;2.85;;
63312;SDS011;49442;45.640;13.812;2023-10-09T02:24:42;16.30;;;3.50;;
63312;SDS011;49442;45.640;13.812;2023-10-09T02:27:24;8.90;;;3.35;;
63312;SDS011;49442;45.640;13.812;2023-10-09T02:30:10;8.18;;;3.15;;
63312;SDS011;49442;45.640;13.812;2023-10-09T02:32:44;8.48;;;3.08;;
63312;SDS011;49442;45.640;13.812;2023-10-09T02:35:19;14.50;;;2.67;;
63312;SDS011;49442;45.640;13.812;2023-10-09T02:38:04;5.68;;;2.65;;
63312;SDS011;49442;45.640;13.812;2023-10-09T02:40:33;10.40;;;2.90;;
63312;SDS011;49442;45.640;13.812;2023-10-09T02:43:09;10.20;;;2.78;;
63312;SDS011;49442;45.640;13.812;2023-10-09T02:45:42;8.10;;;2.40;;
63312;SDS011;49442;45.640;13.812;2023-10-09T02:48:18;9.65;;;2.60;;
63312;SDS011;49442;45.640;13.812;2023-10-09T02:50:51;14.10;;;3.13;;
63312;SDS011;49442;45.640;13.812;2023-10-09T02:53:17;11.95;;;3.20;;
63312;SDS011;49442;45.640;13.812;2023-10-09T02:55:55;10.00;;;2.72;;
63312;SDS011;49442;45.640;13.812;2023-10-09T02:58:40;6.80;;;2.40;;
63312;SDS011;49442;45.640;13.812;2023-10-09T03:01:11;16.70;;;3.22;;
63312;SDS011;49442;45.640;13.812;2023-10-09T03:03:39;15.53;;;3.87;;
63312;SDS011;49442;45.640;13.812;2023-10-09T03:06:10;13.07;;;3.13;;
63312;SDS011;49442;45.640;13.812;2023-10-09T03:08:38;6.28;;;2.75;;
63312;SDS011;49442;45.640;13.812;2023-10-09T03:11:06;8.38;;;2.80;;
63312;SDS011;49442;45.640;13.812;2023-10-09T03:13:40;12.77;;;2.97;;
63312;SDS011;49442;45.640;13.812;2023-10-09T03:16:08;7.72;;;2.50;;
63312;SDS011;49442;45.640;13.812;2023-10-09T03:18:39;6.72;;;2.38;;
63312;SDS011;49442;45.640;13.812;2023-10-09T03:21:05;11.05;;;3.40;;
63312;SDS011;49442;45.640;13.812;2023-10-09T03:23:31;7.82;;;3.22;;
63312;SDS011;49442;45.640;13.812;2023-10-09T03:25:59;8.32;;;3.00;;
63312;SDS011;49442;45.640;13.812;2023-10-09T03:28:25;12.20;;;3.15;;
63312;SDS011;49442;45.640;13.812;2023-10-09T03:30:51;8.30;;;3.17;;
63312;SDS011;49442;45.640;13.812;2023-10-09T03:33:18;12.73;;;3.03;;
63312;SDS011;49442;45.640;13.812;2023-10-09T03:35:44;11.65;;;3.90;;
63312;SDS011;49442;45.640;13.812;2023-10-09T03:38:09;7.38;;;3.10;;
63312;SDS011;49442;45.640;13.812;2023-10-09T03:40:42;8.20;;;2.80;;
63312;SDS011;49442;45.640;13.812;2023-10-09T03:43:11;13.05;;;2.97;;
63312;SDS011;49442;45.640;13.812;2023-10-09T03:45:37;13.23;;;2.40;;
63312;SDS011;49442;45.640;13.812;2023-10-09T03:48:04;14.77;;;3.38;;
63312;SDS011;49442;45.640;13.812;2023-10-09T03:50:45;11.82;;;2.83;;
63312;SDS011;49442;45.640;13.812;2023-10-09T03:53:12;10.70;;;2.67;;
63312;SDS011;49442;45.640;13.812;2023-10-09T03:55:39;21.35;;;4.05;;
63312;SDS011;49442;45.640;13.812;2023-10-09T03:58:08;11.63;;;2.97;;
63312;SDS011;49442;45.640;13.812;2023-10-09T04:00:38;14.82;;;3.10;;
63312;SDS011;49442;45.640;13.812;2023-10-09T04:03:14;7.82;;;3.60;;
63312;SDS011;49442;45.640;13.812;2023-10-09T04:05:41;11.43;;;3.55;;
63312;SDS011;49442;45.640;13.812;2023-10-09T04:08:08;14.63;;;3.35;;
63312;SDS011;49442;45.640;13.812;2023-10-09T04:10:57;6.50;;;2.70;;
63312;SDS011;49442;45.640;13.812;2023-10-09T04:13:27;12.30;;;3.83;;
63312;SDS011;49442;45.640;13.812;2023-10-09T04:16:02;13.77;;;3.40;;
63312;SDS011;49442;45.640;13.812;2023-10-09T04:18:45;8.93;;;3.45;;
63312;SDS011;49442;45.640;13.812;2023-10-09T04:21:12;15.27;;;3.53;;
63312;SDS011;49442;45.640;13.812;2023-10-09T04:23:44;11.63;;;3.05;;
63312;SDS011;49442;45.640;13.812;2023-10-09T04:26:29;13.07;;;5.00;;
63312;SDS011;49442;45.640;13.812;2023-10-09T04:28:59;6.45;;;2.63;;
63312;SDS011;49442;45.640;13.812;2023-10-09T04:31:27;10.43;;;3.72;;
63312;SDS011;49442;45.640;13.812;2023-10-09T04:33:57;10.05;;;3.15;;
63312;SDS011;49442;45.640;13.812;2023-10-09T04:36:49;11.57;;;3.28;;
63312;SDS011;49442;45.640;13.812;2023-10-09T04:39:21;11.90;;;3.50;;
63312;SDS011;49442;45.640;13.812;2023-10-09T04:44:24;10.38;;;3.65;;
63312;SDS011;49442;45.640;13.812;2023-10-09T04:47:01;15.43;;;3.85;;
63312;SDS011;49442;45.640;13.812;2023-10-09T04:49:38;10.20;;;3.30;;
63312;SDS011;49442;45.640;13.812;2023-10-09T04:52:12;14.82;;;3.95;;
63312;SDS011;49442;45.640;13.812;2023-10-09T04:54:50;12.15;;;2.95;;
63312;SDS011;49442;45.640;13.812;2023-10-09T04:57:38;15.80;;;4.18;;
63312;SDS011;49442;45.640;13.812;2023-10-09T05:00:11;13.90;;;4.35;;
63312;SDS011;49442;45.640;13.812;2023-10-09T05:02:59;15.30;;;4.43;;
63312;SDS011;49442;45.640;13.812;2023-10-09T05:05:37;13.45;;;3.92;;
63312;SDS011;49442;45.640;13.812;2023-10-09T05:08:09;18.10;;;3.83;;
63312;SDS011;49442;45.640;13.812;2023-10-09T05:10:49;21.13;;;4.22;;
63312;SDS011;49442;45.640;13.812;2023-10-09T05:13:31;15.63;;;5.70;;
63312;SDS011;49442;45.640;13.812;2023-10-09T05:16:07;18.25;;;3.53;;
63312;SDS011;49442;45.640;13.812;2023-10-09T05:18:52;13.05;;;3.70;;
63312;SDS011;49442;45.640;13.812;2023-10-09T05:24:02;18.30;;;3.72;;
63312;SDS011;49442;45.640;13.812;2023-10-09T05:26:38;10.98;;;3.75;;
63312;SDS011;49442;45.640;13.812;2023-10-09T05:29:17;15.35;;;4.60;;
63312;SDS011;49442;45.640;13.812;2023-10-09T05:31:59;20.48;;;4.03;;
63312;SDS011;49442;45.640;13.812;2023-10-09T05:34:53;13.90;;;4.22;;
63312;SDS011;49442;45.640;13.812;2023-10-09T05:37:27;13.45;;;4.72;;
63312;SDS011;49442;45.640;13.812;2023-10-09T05:40:05;11.55;;;4.53;;
63312;SDS011;49442;45.640;13.812;2023-10-09T05:42:34;10.80;;;4.43;;
63312;SDS011;49442;45.640;13.812;2023-10-09T05:45:07;12.27;;;4.32;;
63312;SDS011;49442;45.640;13.812;2023-10-09T05:50:27;32.70;;;4.85;;
63312;SDS011;49442;45.640;13.812;2023-10-09T05:52:56;14.13;;;4.95;;
63312;SDS011;49442;45.640;13.812;2023-10-09T05:55:42;14.75;;;4.75;;
63312;SDS011;49442;45.640;13.812;2023-10-09T05:58:33;16.40;;;5.20;;
63312;SDS011;49442;45.640;13.812;2023-10-09T06:01:27;19.10;;;4.80;;
63312;SDS011;49442;45.640;13.812;2023-10-09T06:04:11;16.33;;;5.72;;
63312;SDS011;49442;45.640;13.812;2023-10-09T06:06:46;16.65;;;5.13;;
63312;SDS011;49442;45.640;13.812;2023-10-09T06:09:20;11.68;;;5.60;;
63312;SDS011;49442;45.640;13.812;2023-10-09T06:11:47;21.25;;;6.28;;
63312;SDS011;49442;45.640;13.812;2023-10-09T06:14:17;18.95;;;5.65;;
63312;SDS011;49442;45.640;13.812;2023-10-09T06:16:56;13.18;;;5.03;;
63312;SDS011;49442;45.640;13.812;2023-10-09T06:19:40;12.15;;;5.65;;
63312;SDS011;49442;45.640;13.812;2023-10-09T06:22:08;17.20;;;5.60;;
63312;SDS011;49442;45.640;13.812;2023-10-09T06:24:37;24.42;;;6.00;;
63312;SDS011;49442;45.640;13.812;2023-10-09T06:27:06;23.50;;;6.30;;
63312;SDS011;49442;45.640;13.812;2023-10-09T06:29:36;21.90;;;6.03;;
63312;SDS011;49442;45.640;13.812;2023-10-09T06:32:03;17.73;;;6.95;;
63312;SDS011;49442;45.640;13.812;2023-10-09T06:34:59;22.50;;;6.47;;
63312;SDS011;49442;45.640;13.812;2023-10-09T06:37:41;17.80;;;6.30;;
63312;SDS011;49442;45.640;13.812;2023-10-09T06:40:26;28.35;;;8.00;;
63312;SDS011;49442;45.640;13.812;2023-10-09T06:43:10;22.20;;;6.68;;
63312;SDS011;49442;45.640;13.812;2023-10-09T06:48:11;25.10;;;6.97;;
63312;SDS011;49442;45.640;13.812;2023-10-09T06:50:56;18.33;;;7.30;;
63312;SDS011;49442;45.640;13.812;2023-10-09T06:53:29;18.95;;;7.38;;
63312;SDS011;49442;45.640;13.812;2023-10-09T06:56:15;24.38;;;7.90;;
63312;SDS011;49442;45.640;13.812;2023-10-09T06:58:49;24.27;;;6.57;;
63312;SDS011;49442;45.640;13.812;2023-10-09T07:01:20;24.05;;;6.57;;
63312;SDS011;49442;45.640;13.812;2023-10-09T07:03:55;21.30;;;7.15;;
63312;SDS011;49442;45.640;13.812;2023-10-09T07:06:35;24.85;;;9.15;;
63312;SDS011;49442;45.640;13.812;2023-10-09T07:09:03;19.65;;;7.13;;
63312;SDS011;49442;45.640;13.812;2023-10-09T07:11:31;19.75;;;7.60;;
63312;SDS011;49442;45.640;13.812;2023-10-09T07:14:10;18.00;;;6.35;;
63312;SDS011;49442;45.640;13.812;2023-10-09T07:17:05;24.55;;;8.23;;
63312;SDS011;49442;45.640;13.812;2023-10-09T07:19:53;22.75;;;6.90;;
63312;SDS011;49442;45.640;13.812;2023-10-09T07:22:19;17.45;;;6.43;;
63312;SDS011;49442;45.640;13.812;2023-10-09T07:24:54;20.25;;;7.35;;
63312;SDS011;49442;45.640;13.812;2023-10-09T07:27:21;12.77;;;6.90;;
63312;SDS011;49442;45.640;13.812;2023-10-09T07:30:06;21.45;;;7.68;;
63312;SDS011;49442;45.640;13.812;2023-10-09T07:32:53;13.70;;;6.45;;
63312;SDS011;49442;45.640;13.812;2023-10-09T07:35:35;27.90;;;8.77;;
63312;SDS011;49442;45.640;13.812;2023-10-09T07:38:09;25.08;;;6.72;;
63312;SDS011;49442;45.640;13.812;2023-10-09T07:40:39;21.73;;;6.55;;
63312;SDS011;49442;45.640;13.812;2023-10-09T07:43:25;30.40;;;7.55;;
63312;SDS011;49442;45.640;13.812;2023-10-09T07:46:01;18.63;;;7.45;;
63312;SDS011;49442;45.640;13.812;2023-10-09T07:48:46;23.80;;;7.60;;
63312;SDS011;49442;45.640;13.812;2023-10-09T07:51:17;22.33;;;7.63;;
63312;SDS011;49442;45.640;13.812;2023-10-09T07:53:49;22.13;;;9.02;;
63312;SDS011;49442;45.640;13.812;2023-10-09T07:56:22;25.80;;;7.40;;
63312;SDS011;49442;45.640;13.812;2023-10-09T07:58:57;20.15;;;8.18;;
63312;SDS011;49442;45.640;13.812;2023-10-09T08:01:26;23.80;;;8.65;;
63312;SDS011;49442;45.640;13.812;2023-10-09T08:04:01;19.15;;;8.32;;
63312;SDS011;49442;45.640;13.812;2023-10-09T08:06:30;21.50;;;8.80;;
63312;SDS011;49442;45.640;13.812;2023-10-09T08:09:07;24.65;;;9.57;;
63312;SDS011;49442;45.640;13.812;2023-10-09T08:11:40;27.05;;;10.20;;
63312;SDS011;49442;45.640;13.812;2023-10-09T08:14:10;24.40;;;9.75;;
63312;SDS011;49442;45.640;13.812;2023-10-09T08:16:54;26.52;;;11.82;;
63312;SDS011;49442;45.640;13.812;2023-10-09T08:19:38;28.02;;;11.45;;
63312;SDS011;49442;45.640;13.812;2023-10-09T08:22:30;32.35;;;12.25;;
63312;SDS011;49442;45.640;13.812;2023-10-09T08:24:56;24.92;;;12.07;;
63312;SDS011;49442;45.640;13.812;2023-10-09T08:30:01;28.80;;;13.32;;
63312;SDS011;49442;45.640;13.812;2023-10-09T08:32:37;29.20;;;12.38;;
63312;SDS011;49442;45.640;13.812;2023-10-09T08:35:04;22.48;;;12.52;;
63312;SDS011;49442;45.640;13.812;2023-10-09T08:37:44;22.05;;;11.90;;
63312;SDS011;49442;45.640;13.812;2023-10-09T08:40:13;24.48;;;12.38;;
63312;SDS011;49442;45.640;13.812;2023-10-09T08:42:44;18.13;;;12.05;;
63312;SDS011;49442;45.640;13.812;2023-10-09T08:45:19;31.20;;;12.90;;
63312;SDS011;49442;45.640;13.812;2023-10-09T08:47:53;27.05;;;12.15;;
63312;SDS011;49442;45.640;13.812;2023-10-09T08:50:21;19.50;;;11.65;;
63312;SDS011;49442;45.640;13.812;2023-10-09T08:52:47;22.65;;;11.57;;
63312;SDS011;49442;45.640;13.812;2023-10-09T08:55:15;23.95;;;12.75;;
63312;SDS011;49442;45.640;13.812;2023-10-09T08:57:44;22.73;;;12.18;;
63312;SDS011;49442;45.640;13.812;2023-10-09T09:00:18;30.65;;;12.82;;
63312;SDS011;49442;45.640;13.812;2023-10-09T09:02:49;19.42;;;11.57;;
63312;SDS011;49442;45.640;13.812;2023-10-09T09:05:18;27.30;;;13.00;;
63312;SDS011;49442;45.640;13.812;2023-10-09T09:07:47;26.48;;;12.98;;
63312;SDS011;49442;45.640;13.812;2023-10-09T09:10:13;25.38;;;12.60;;
63312;SDS011;49442;45.640;13.812;2023-10-09T09:12:49;30.17;;;14.52;;
63312;SDS011;49442;45.640;13.812;2023-10-09T09:15:19;22.50;;;15.73;;
63312;SDS011;49442;45.640;13.812;2023-10-09T09:17:46;24.05;;;13.93;;
63312;SDS011;49442;45.640;13.812;2023-10-09T09:20:26;21.13;;;14.55;;
63312;SDS011;49442;45.640;13.812;2023-10-09T09:22:57;27.33;;;15.73;;
63312;SDS011;49442;45.640;13.812;2023-10-09T09:25:23;23.13;;;14.07;;
63312;SDS011;49442;45.640;13.812;2023-10-09T09:27:49;30.33;;;15.38;;
63312;SDS011;49442;45.640;13.812;2023-10-09T09:30:26;31.63;;;16.73;;
63312;SDS011;49442;45.640;13.812;2023-10-09T09:36:17;29.10;;;14.88;;
63312;SDS011;49442;45.640;13.812;2023-10-09T09:38:43;28.38;;;17.65;;
63312;SDS011;49442;45.640;13.812;2023-10-09T09:41:16;40.13;;;18.70;;
63312;SDS011;49442;45.640;13.812;2023-10-09T09:43:58;26.10;;;16.60;;
63312;SDS011;49442;45.640;13.812;2023-10-09T09:46:31;30.25;;;17.55;;
63312;SDS011;49442;45.640;13.812;2023-10-09T09:49:01;29.75;;;17.95;;
63312;SDS011;49442;45.640;13.812;2023-10-09T09:51:32;30.10;;;17.92;;
63312;SDS011;49442;45.640;13.812;2023-10-09T09:53:58;24.17;;;17.90;;
63312;SDS011;49442;45.640;13.812;2023-10-09T09:56:26;28.98;;;18.00;;
63312;SDS011;49442;45.640;13.812;2023-10-09T09:58:54;28.25;;;19.33;;
63312;SDS011;49442;45.640;13.812;2023-10-09T10:01:28;40.22;;;20.00;;
63312;SDS011;49442;45.640;13.812;2023-10-09T10:04:04;36.17;;;19.80;;
63312;SDS011;49442;45.640;13.812;2023-10-09T10:06:39;35.30;;;20.88;;
63312;SDS011;49442;45.640;13.812;2023-10-09T10:12:07;34.38;;;20.17;;
63312;SDS011;49442;45.640;13.812;2023-10-09T10:17:45;28.50;;;19.27;;
63312;SDS011;49442;45.640;13.812;2023-10-09T10:20:25;32.78;;;21.77;;
63312;SDS011;49442;45.640;13.812;2023-10-09T10:23:17;32.50;;;21.63;;
63312;SDS011;49442;45.640;13.812;2023-10-09T10:25:44;30.08;;;21.30;;
63312;SDS011;49442;45.640;13.812;2023-10-09T10:28:23;39.13;;;22.42;;
63312;SDS011;49442;45.640;13.812;2023-10-09T10:31:09;34.75;;;22.83;;
63312;SDS011;49442;45.640;13.812;2023-10-09T10:36:23;36.13;;;26.83;;
63312;SDS011;49442;45.640;13.812;2023-10-09T10:39:07;34.30;;;24.02;;
63312;SDS011;49442;45.640;13.812;2023-10-09T10:42:02;34.55;;;25.33;;
63312;SDS011;49442;45.640;13.812;2023-10-09T10:44:30;32.03;;;24.27;;
63312;SDS011;49442;45.640;13.812;2023-10-09T10:47:04;39.85;;;25.40;;
63312;SDS011;49442;45.640;13.812;2023-10-09T10:49:53;34.38;;;23.95;;
63312;SDS011;49442;45.640;13.812;2023-10-09T10:52:26;37.13;;;23.88;;
63312;SDS011;49442;45.640;13.812;2023-10-09T10:55:07;44.05;;;29.80;;
63312;SDS011;49442;45.640;13.812;2023-10-09T11:00:54;39.58;;;29.60;;
63312;SDS011;49442;45.640;13.812;2023-10-09T11:03:22;42.75;;;33.33;;
63312;SDS011;49442;45.640;13.812;2023-10-09T11:06:03;53.00;;;36.70;;
63312;SDS011;49442;45.640;13.812;2023-10-09T11:08:46;54.90;;;34.15;;
63312;SDS011;49442;45.640;13.812;2023-10-09T11:11:19;44.53;;;35.22;;
63312;SDS011;49442;45.640;13.812;2023-10-09T11:13:45;51.13;;;36.78;;
63312;SDS011;49442;45.640;13.812;2023-10-09T11:16:23;51.47;;;34.35;;
63312;SDS011;49442;45.640;13.812;2023-10-09T11:19:00;44.97;;;34.85;;
63312;SDS011;49442;45.640;13.812;2023-10-09T11:21:38;52.70;;;39.15;;
63312;SDS011;49442;45.640;13.812;2023-10-09T11:24:07;52.45;;;37.75;;
63312;SDS011;49442;45.640;13.812;2023-10-09T11:26:49;52.50;;;37.72;;
63312;SDS011;49442;45.640;13.812;2023-10-09T11:29:20;51.45;;;38.55;;
63312;SDS011;49442;45.640;13.812;2023-10-09T11:32:09;49.53;;;37.95;;
63312;SDS011;49442;45.640;13.812;2023-10-09T11:34:43;48.50;;;38.47;;
63312;SDS011;49442;45.640;13.812;2023-10-09T11:37:22;48.92;;;35.40;;
63312;SDS011;49442;45.640;13.812;2023-10-09T11:39:55;60.60;;;40.53;;
63312;SDS011;49442;45.640;13.812;2023-10-09T11:42:22;56.38;;;39.25;;
63312;SDS011;49442;45.640;13.812;2023-10-09T11:45:20;59.05;;;37.63;;
63312;SDS011;49442;45.640;13.812;2023-10-09T11:47:53;60.63;;;42.42;;
63312;SDS011;49442;45.640;13.812;2023-10-09T11:50:41;59.30;;;41.17;;
63312;SDS011;49442;45.640;13.812;2023-10-09T11:53:17;56.45;;;40.13;;
63312;SDS011;49442;45.640;13.812;2023-10-09T11:55:50;60.08;;;42.10;;
63312;SDS011;49442;45.640;13.812;2023-10-09T11:58:18;68.22;;;42.33;;
63312;SDS011;49442;45.640;13.812;2023-10-09T12:00:57;60.80;;;43.67;;
63312;SDS011;49442;45.640;13.812;2023-10-09T12:03:30;58.53;;;41.55;;
63312;SDS011;49442;45.640;13.812;2023-10-09T12:06:00;60.65;;;41.38;;
63312;SDS011;49442;45.640;13.812;2023-10-09T12:08:34;53.80;;;39.53;;
63312;SDS011;49442;45.640;13.812;2023-10-09T12:11:02;65.70;;;44.00;;
63312;SDS011;49442;45.640;13.812;2023-10-09T12:13:28;60.35;;;43.30;;
63312;SDS011;49442;45.640;13.812;2023-10-09T12:15:54;66.20;;;44.83;;
63312;SDS011;49442;45.640;13.812;2023-10-09T12:18:22;64.15;;;45.28;;
63312;SDS011;49442;45.640;13.812;2023-10-09T12:20:49;66.45;;;45.58;;
63312;SDS011;49442;45.640;13.812;2023-10-09T12:23:16;72.28;;;46.45;;
63312;SDS011;49442;45.640;13.812;2023-10-09T12:25:47;65.03;;;46.58;;
63312;SDS011;49442;45.640;13.812;2023-10-09T12:28:14;67.72;;;50.22;;
63312;SDS011;49442;45.640;13.812;2023-10-09T12:30:45;72.13;;;46.85;;
63312;SDS011;49442;45.640;13.812;2023-10-09T12:33:15;69.70;;;46.00;;
63312;SDS011;49442;45.640;13.812;2023-10-09T12:35:42;70.20;;;46.67;;
63312;SDS011;49442;45.640;13.812;2023-10-09T12:38:10;66.88;;;48.17;;
63312;SDS011;49442;45.640;13.812;2023-10-09T12:40:37;64.72;;;46.83;;
63312;SDS011;49442;45.640;13.812;2023-10-09T12:43:05;69.32;;;47.47;;
63312;SDS011;49442;45.640;13.812;2023-10-09T12:45:40;77.88;;;50.17;;
63312;SDS011;49442;45.640;13.812;2023-10-09T12:48:10;67.72;;;44.13;;
63312;SDS011;49442;45.640;13.812;2023-10-09T12:50:36;63.08;;;45.90;;
63312;SDS011;49442;45.640;13.812;2023-10-09T12:53:09;67.53;;;47.03;;
63312;SDS011;49442;45.640;13.812;2023-10-09T12:55:38;66.13;;;48.45;;
63312;SDS011;49442;45.640;13.812;2023-10-09T12:58:08;72.97;;;49.40;;
63312;SDS011;49442;45.640;13.812;2023-10-09T13:00:39;63.67;;;44.05;;
63312;SDS011;49442;45.640;13.812;2023-10-09T13:03:16;71.35;;;46.90;;
63312;SDS011;49442;45.640;13.812;2023-10-09T13:05:45;63.00;;;45.03;;
63312;SDS011;49442;45.640;13.812;2023-10-09T13:08:26;63.20;;;43.53;;
63312;SDS011;49442;45.640;13.812;2023-10-09T13:10:57;68.45;;;47.60;;
63312;SDS011;49442;45.640;13.812;2023-10-09T13:13:33;66.63;;;44.05;;
63312;SDS011;49442;45.640;13.812;2023-10-09T13:16:05;63.00;;;44.13;;
63312;SDS011;49442;45.640;13.812;2023-10-09T13:18:32;64.68;;;43.47;;
63312;SDS011;49442;45.640;13.812;2023-10-09T13:20:58;59.72;;;42.67;;
63312;SDS011;49442;45.640;13.812;2023-10-09T13:23:28;56.60;;;43.17;;
63312;SDS011;49442;45.640;13.812;2023-10-09T13:26:03;64.95;;;44.80;;
63312;SDS011;49442;45.640;13.812;2023-10-09T13:28:42;57.80;;;40.35;;
63312;SDS011;49442;45.640;13.812;2023-10-09T13:31:12;61.70;;;43.88;;
63312;SDS011;49442;45.640;13.812;2023-10-09T13:33:42;58.05;;;41.15;;
63312;SDS011;49442;45.640;13.812;2023-10-09T13:36:11;61.60;;;45.10;;
63312;SDS011;49442;45.640;13.812;2023-10-09T13:38:44;63.30;;;43.35;;
63312;SDS011;49442;45.640;13.812;2023-10-09T13:41:11;55.80;;;42.58;;
63312;SDS011;49442;45.640;13.812;2023-10-09T13:43:43;57.55;;;41.95;;
63312;SDS011;49442;45.640;13.812;2023-10-09T13:46:09;57.53;;;40.30;;
63312;SDS011;49442;45.640;13.812;2023-10-09T13:48:37;58.92;;;42.22;;
63312;SDS011;49442;45.640;13.812;2023-10-09T13:51:06;61.25;;;42.20;;
63312;SDS011;49442;45.640;13.812;2023-10-09T13:53:34;54.33;;;41.28;;
63312;SDS011;49442;45.640;13.812;2023-10-09T13:56:19;57.83;;;40.92;;
63312;SDS011;49442;45.640;13.812;2023-10-09T13:58:50;61.28;;;43.85;;
63312;SDS011;49442;45.640;13.812;2023-10-09T14:01:19;55.60;;;41.10;;
63312;SDS011;49442;45.640;13.812;2023-10-09T14:03:53;55.45;;;39.10;;
63312;SDS011;49442;45.640;13.812;2023-10-09T14:06:19;58.33;;;41.88;;
63312;SDS011;49442;45.640;13.812;2023-10-09T14:08:55;56.05;;;39.97;;
63312;SDS011;49442;45.640;13.812;2023-10-09T14:11:21;54.30;;;40.13;;
63312;SDS011;49442;45.640;13.812;2023-10-09T14:13:47;63.30;;;42.28;;
63312;SDS011;49442;45.640;13.812;2023-10-09T14:16:13;51.33;;;37.65;;
63312;SDS011;49442;45.640;13.812;2023-10-09T14:18:55;52.33;;;38.97;;
63312;SDS011;49442;45.640;13.812;2023-10-09T14:21:28;59.55;;;39.35;;
63312;SDS011;49442;45.640;13.812;2023-10-09T14:23:58;54.70;;;35.85;;
63312;SDS011;49442;45.640;13.812;2023-10-09T14:26:27;57.70;;;41.50;;
63312;SDS011;49442;45.640;13.812;2023-10-09T14:28:54;59.13;;;41.20;;
63312;SDS011;49442;45.640;13.812;2023-10-09T14:31:23;57.00;;;39.80;;
63312;SDS011;49442;45.640;13.812;2023-10-09T14:33:56;50.67;;;37.88;;
63312;SDS011;49442;45.640;13.812;2023-10-09T14:36:23;57.90;;;39.03;;
63312;SDS011;49442;45.640;13.812;2023-10-09T14:38:50;57.88;;;39.28;;
63312;SDS011;49442;45.640;13.812;2023-10-09T14:41:20;56.08;;;39.88;;
63312;SDS011;49442;45.640;13.812;2023-10-09T14:43:48;60.95;;;40.83;;
63312;SDS011;49442;45.640;13.812;2023-10-09T14:46:15;72.13;;;41.88;;
63312;SDS011;49442;45.640;13.812;2023-10-09T14:48:43;59.20;;;40.42;;
63312;SDS011;49442;45.640;13.812;2023-10-09T14:51:11;68.65;;;43.00;;
63312;SDS011;49442;45.640;13.812;2023-10-09T14:53:38;64.95;;;40.38;;
63312;SDS011;49442;45.640;13.812;2023-10-09T14:56:07;60.53;;;42.30;;
63312;SDS011;49442;45.640;13.812;2023-10-09T14:58:34;56.10;;;40.85;;
63312;SDS011;49442;45.640;13.812;2023-10-09T15:01:07;61.88;;;41.95;;
63312;SDS011;49442;45.640;13.812;2023-10-09T15:03:37;56.13;;;38.65;;
63312;SDS011;49442;45.640;13.812;2023-10-09T15:06:03;64.32;;;42.65;;
63312;SDS011;49442;45.640;13.812;2023-10-09T15:08:34;64.85;;;42.38;;
63312;SDS011;49442;45.640;13.812;2023-10-09T15:11:00;78.15;;;42.45;;
63312;SDS011;49442;45.640;13.812;2023-10-09T15:13:26;59.15;;;41.28;;
63312;SDS011;49442;45.640;13.812;2023-10-09T15:15:53;61.78;;;41.03;;
63312;SDS011;49442;45.640;13.812;2023-10-09T15:18:20;70.60;;;42.70;;
63312;SDS011;49442;45.640;13.812;2023-10-09T15:20:47;68.18;;;44.55;;